Time;durP1;ratioP1;P1;durP2;ratioP2;P2;SDS_P1;SDS_P2;PMS_P1;PMS_P2;Temp;Humidity;BMP_temperature;BMP_pressure;BME280_temperature;BME280_humidity;BME280_pressure;Samples;Min_cycle;Max_cycle;Signal;HPM_P1;HPM_P2
2023/01/12 00:01:51;;;;;;;19.33;2.83;;;7.80;99.90;;;;;;5054317;28;20483;-44
2023/01/12 00:04:17;;;;;;;14.60;3.75;;;7.80;99.90;;;;;;5052866;28;20413;-46
2023/01/12 00:06:43;;;;;;;15.40;2.80;;;7.90;99.90;;;;;;5051175;28;20094;-43
2023/01/12 00:09:09;;;;;;;11.75;3.13;;;7.90;99.90;;;;;;5052941;28;20353;-43
2023/01/12 00:11:36;;;;;;;11.23;2.65;;;7.90;99.90;;;;;;5052558;28;20037;-43
2023/01/12 00:14:03;;;;;;;14.48;2.95;;;8.00;99.90;;;;;;5052368;28;20441;-44
2023/01/12 00:16:34;;;;;;;11.60;3.42;;;8.00;99.90;;;;;;5059599;28;20386;-43
2023/01/12 00:19:20;;;;;;;9.77;3.28;;;8.00;99.90;;;;;;5072807;28;20469;-46
2023/01/12 00:21:55;;;;;;;11.95;2.65;;;8.00;99.90;;;;;;5062712;28;20120;-43
2023/01/12 00:24:25;;;;;;;16.65;2.70;;;8.00;99.90;;;;;;5070927;28;20025;-42
2023/01/12 00:26:52;;;;;;;14.35;2.58;;;8.00;99.90;;;;;;5072642;28;20020;-43
2023/01/12 00:29:18;;;;;;;7.28;2.08;;;7.90;99.90;;;;;;5072229;28;20056;-47
2023/01/12 00:31:44;;;;;;;13.18;3.13;;;7.90;99.90;;;;;;5062614;28;20029;-43
2023/01/12 00:34:10;;;;;;;21.80;3.55;;;7.80;99.90;;;;;;5066680;28;20033;-44
2023/01/12 00:36:36;;;;;;;8.93;2.90;;;7.80;99.90;;;;;;5067401;28;20123;-43
2023/01/12 00:39:02;;;;;;;13.10;2.55;;;7.80;99.90;;;;;;5063622;28;20103;-43
2023/01/12 00:46:56;;;;;;;7.68;2.67;;;7.80;99.90;;;;;;5072509;28;20055;-43
2023/01/12 00:49:22;;;;;;;18.30;2.78;;;7.80;99.90;;;;;;5059143;28;20021;-43
2023/01/12 00:51:48;;;;;;;13.48;3.38;;;7.80;99.90;;;;;;5031630;28;20033;-43
2023/01/12 00:54:13;;;;;;;10.60;2.72;;;7.80;99.90;;;;;;5032180;28;20037;-44
2023/01/12 00:56:39;;;;;;;16.98;3.10;;;7.80;99.90;;;;;;5037119;28;20032;-43
2023/01/12 00:59:05;;;;;;;15.70;3.67;;;7.80;99.90;;;;;;5063303;28;20031;-43
2023/01/12 01:01:32;;;;;;;9.77;2.38;;;7.80;99.90;;;;;;5069667;28;20128;-43
2023/01/12 01:03:58;;;;;;;13.43;2.58;;;7.80;99.90;;;;;;5062580;28;20021;-43
2023/01/12 01:06:24;;;;;;;17.13;2.97;;;7.80;99.90;;;;;;5071443;28;20087;-42
2023/01/12 01:08:50;;;;;;;14.93;2.95;;;7.80;99.90;;;;;;5061340;28;20066;-43
2023/01/12 01:11:16;;;;;;;14.75;3.25;;;7.80;99.90;;;;;;5065316;28;20046;-44
2023/01/12 01:13:45;;;;;;;14.48;2.88;;;7.90;99.90;;;;;;5070437;28;20036;-42
2023/01/12 01:16:14;;;;;;;10.63;2.22;;;7.90;99.90;;;;;;5068326;28;20029;-44
2023/01/12 01:18:40;;;;;;;11.98;2.45;;;7.90;99.90;;;;;;5062845;28;20367;-44
2023/01/12 01:21:09;;;;;;;10.98;2.70;;;8.00;99.90;;;;;;5071253;28;20032;-43
2023/01/12 01:23:35;;;;;;;9.80;2.17;;;7.90;99.90;;;;;;5058638;28;20032;-43
2023/01/12 01:26:05;;;;;;;16.08;3.35;;;7.90;99.90;;;;;;5071319;28;20394;-44
2023/01/12 01:28:32;;;;;;;18.00;2.70;;;7.90;99.90;;;;;;5070119;28;20048;-43
2023/01/12 01:31:06;;;;;;;15.15;3.67;;;8.00;99.90;;;;;;5062773;28;20058;-43
2023/01/12 01:33:32;;;;;;;12.57;3.08;;;8.10;99.90;;;;;;5062101;28;20048;-42
2023/01/12 01:35:58;;;;;;;11.90;3.00;;;8.00;99.90;;;;;;5071183;28;20024;-42
2023/01/12 01:38:24;;;;;;;10.88;2.75;;;8.00;99.90;;;;;;5052853;28;20406;-43
2023/01/12 01:40:49;;;;;;;14.40;3.97;;;8.00;99.90;;;;;;5061464;28;20058;-42
2023/01/12 01:43:17;;;;;;;16.17;3.47;;;8.00;99.90;;;;;;5062325;28;20029;-42
2023/01/12 01:45:46;;;;;;;13.43;3.67;;;8.00;99.90;;;;;;5062790;28;20021;-42
2023/01/12 01:48:15;;;;;;;9.65;2.67;;;8.00;99.90;;;;;;5047880;28;20111;-42
2023/01/12 01:50:49;;;;;;;13.38;2.75;;;8.00;99.90;;;;;;5061183;28;20059;-45
2023/01/12 01:53:19;;;;;;;11.27;3.10;;;8.00;99.90;;;;;;5070502;28;20102;-44
2023/01/12 01:55:50;;;;;;;;;;;8.00;99.90;;;;;;5070099;28;20686;-42
2023/01/12 01:58:39;;;;;;;6.93;2.47;;;8.00;99.90;;;;;;5070661;28;19905;-43
2023/01/12 02:01:06;;;;;;;15.23;2.40;;;8.00;99.90;;;;;;5067741;28;20328;-42
2023/01/12 02:03:32;;;;;;;11.38;2.95;;;8.00;99.90;;;;;;5061670;28;20112;-43
2023/01/12 02:05:58;;;;;;;14.70;2.90;;;8.00;99.90;;;;;;5070890;28;20056;-42
2023/01/12 02:09:00;;;;;;;5.95;1.90;;;8.00;99.90;;;;;;5061207;28;20031;-42
2023/01/12 02:17:33;;;;;;;13.43;2.55;;;7.90;99.90;;;;;;5033119;28;20525;-42
2023/01/12 02:20:16;;;;;;;10.60;2.78;;;7.90;99.90;;;;;;5051823;28;20044;-43
2023/01/12 02:22:50;;;;;;;7.68;2.65;;;7.90;99.90;;;;;;5051599;28;20020;-42
2023/01/12 02:25:34;;;;;;;11.23;2.53;;;8.00;99.90;;;;;;5061395;28;20029;-42
2023/01/12 02:28:29;;;;;;;8.50;2.42;;;8.00;99.90;;;;;;5063446;28;20074;-42
2023/01/12 02:31:22;;;;;;;9.55;2.13;;;7.90;99.90;;;;;;5055804;28;20051;-42
2023/01/12 02:34:08;;;;;;;13.82;2.40;;;7.90;99.90;;;;;;5069370;28;20036;-42
2023/01/12 02:36:53;;;;;;;11.40;2.72;;;7.90;99.90;;;;;;5070161;28;20408;-42
2023/01/12 02:39:32;;;;;;;16.17;2.90;;;8.10;99.90;;;;;;5069632;28;20104;-42
2023/01/12 02:45:18;;;;;;;12.60;2.03;;;8.00;99.90;;;;;;5068614;28;20035;-43
2023/01/12 02:48:03;;;;;;;5.68;1.92;;;8.00;99.90;;;;;;5060902;28;20028;-43
2023/01/12 02:51:11;;;;;;;9.68;2.20;;;8.00;99.90;;;;;;5065427;28;20032;-43
2023/01/12 02:53:46;;;;;;;9.95;2.20;;;8.00;99.90;;;;;;5018058;28;20026;-43
2023/01/12 02:56:23;;;;;;;15.68;2.35;;;7.90;99.90;;;;;;5027073;28;20039;-43
2023/01/12 02:58:54;;;;;;;8.02;2.42;;;7.90;99.90;;;;;;5052364;28;20044;-43
2023/01/12 03:01:23;;;;;;;9.63;2.60;;;7.90;99.90;;;;;;5069875;28;20266;-42
2023/01/12 03:03:50;;;;;;;15.88;2.90;;;7.90;99.90;;;;;;5067530;28;20109;-42
2023/01/12 03:06:17;;;;;;;6.50;2.40;;;7.90;99.90;;;;;;5067929;28;20025;-42
2023/01/12 03:08:46;;;;;;;7.82;2.50;;;7.80;99.90;;;;;;5068063;28;20024;-43
2023/01/12 03:11:15;;;;;;;6.65;2.42;;;7.80;99.90;;;;;;5069267;28;20107;-43
2023/01/12 03:13:56;;;;;;;11.25;2.97;;;7.80;99.90;;;;;;5067131;28;20034;-43
2023/01/12 03:16:29;;;;;;;11.23;2.30;;;7.80;99.90;;;;;;5055902;28;20543;-43
2023/01/12 03:19:08;;;;;;;13.63;2.45;;;7.90;99.90;;;;;;5029377;28;20582;-42
2023/01/12 03:21:47;;;;;;;10.93;3.15;;;7.90;99.90;;;;;;5029339;28;20542;-43
2023/01/12 03:24:16;;;;;;;13.15;2.95;;;8.00;99.90;;;;;;5029007;28;20032;-43
2023/01/12 03:26:49;;;;;;;8.85;2.30;;;7.90;99.90;;;;;;5029246;28;20052;-43
2023/01/12 03:29:28;;;;;;;12.45;1.90;;;7.90;99.90;;;;;;5053788;28;20025;-43
2023/01/12 03:31:54;;;;;;;11.15;2.97;;;8.00;99.90;;;;;;5028269;28;20507;-44
2023/01/12 03:34:20;;;;;;;7.22;2.50;;;8.00;99.90;;;;;;5028126;28;20036;-43
2023/01/12 03:37:07;;;;;;;17.05;2.42;;;8.10;99.90;;;;;;5028835;28;20394;-43
2023/01/12 03:40:00;;;;;;;8.27;1.95;;;8.10;99.90;;;;;;5055997;28;20032;-44
2023/01/12 03:42:46;;;;;;;8.20;1.63;;;8.10;99.90;;;;;;5062483;28;20072;-43
2023/01/12 03:45:46;;;;;;;9.13;2.50;;;8.20;99.90;;;;;;5069203;28;20316;-43
2023/01/12 03:48:28;;;;;;;6.75;1.92;;;8.20;99.90;;;;;;5061741;28;20032;-43
2023/01/12 03:51:15;;;;;;;5.80;2.05;;;8.20;99.90;;;;;;5049759;28;20060;-43
2023/01/12 03:53:43;;;;;;;10.07;2.15;;;8.20;99.90;;;;;;5048522;28;20052;-46
2023/01/12 03:56:11;;;;;;;6.72;2.00;;;8.30;99.90;;;;;;5049037;28;20035;-43
2023/01/12 03:58:37;;;;;;;9.35;2.13;;;8.30;99.90;;;;;;5048483;28;20390;-42
2023/01/12 04:01:04;;;;;;;5.18;1.92;;;8.30;99.90;;;;;;5048520;28;20106;-45
2023/01/12 04:03:30;;;;;;;7.75;1.92;;;8.30;99.90;;;;;;5048098;28;20502;-42
2023/01/12 04:05:56;;;;;;;6.07;1.65;;;8.30;99.90;;;;;;5058550;28;20332;-43
2023/01/12 04:08:22;;;;;;;10.63;3.10;;;8.30;99.90;;;;;;5068479;28;20424;-43
2023/01/12 04:10:47;;;;;;;6.47;1.70;;;8.40;99.90;;;;;;5067659;28;20032;-42
2023/01/12 04:13:13;;;;;;;5.65;1.63;;;8.30;99.90;;;;;;5068563;28;20059;-43
2023/01/12 04:15:41;;;;;;;8.93;1.63;;;8.30;99.90;;;;;;5068799;28;20572;-43
2023/01/12 04:18:11;;;;;;;9.80;1.65;;;8.30;99.90;;;;;;5065662;28;20025;-42
2023/01/12 04:20:37;;;;;;;4.78;1.85;;;8.30;99.90;;;;;;5059953;28;20025;-44
2023/01/12 04:23:03;;;;;;;7.18;2.00;;;8.30;99.90;;;;;;5068056;28;20429;-42
2023/01/12 04:25:29;;;;;;;9.43;2.20;;;8.40;99.90;;;;;;5058239;28;20021;-42
2023/01/12 04:28:03;;;;;;;7.68;2.20;;;8.40;99.90;;;;;;5061280;28;20605;-43
2023/01/12 04:30:33;;;;;;;4.65;1.70;;;8.40;99.90;;;;;;5068697;28;20559;-44
2023/01/12 04:32:59;;;;;;;8.27;2.00;;;8.40;99.90;;;;;;5066902;28;20107;-42
2023/01/12 04:35:26;;;;;;;5.38;1.63;;;8.40;99.90;;;;;;5067383;28;20048;-42
2023/01/12 04:37:52;;;;;;;5.78;1.80;;;8.40;99.90;;;;;;5067099;28;20082;-43
2023/01/12 04:40:18;;;;;;;7.10;2.22;;;8.40;99.90;;;;;;5068097;28;20025;-43
2023/01/12 04:43:01;;;;;;;7.03;1.90;;;8.40;99.90;;;;;;5067938;28;20082;-43
2023/01/12 04:45:32;;;;;;;5.07;1.80;;;8.30;99.90;;;;;;5067121;28;20029;-43
2023/01/12 04:48:06;;;;;;;8.63;1.83;;;8.40;99.90;;;;;;5067732;28;20032;-43
2023/01/12 04:50:32;;;;;;;5.50;1.75;;;8.40;99.90;;;;;;5071983;28;20389;-42
2023/01/12 04:53:01;;;;;;;9.80;2.30;;;8.40;99.90;;;;;;5067833;28;20025;-44
2023/01/12 04:55:27;;;;;;;7.53;1.92;;;8.40;99.90;;;;;;5063514;28;20028;-49
2023/01/12 04:57:54;;;;;;;6.00;1.83;;;8.40;99.90;;;;;;5071823;28;20024;-43
2023/01/12 05:00:20;;;;;;;8.65;2.47;;;8.40;99.90;;;;;;5070230;28;20024;-43
2023/01/12 05:02:46;;;;;;;7.18;1.88;;;8.30;99.90;;;;;;5071588;28;20070;-43
2023/01/12 05:05:12;;;;;;;7.20;2.15;;;8.20;99.90;;;;;;5071593;28;20534;-45
2023/01/12 05:10:21;;;;;;;9.27;2.22;;;8.20;99.90;;;;;;5055176;28;20241;-43
2023/01/12 05:10:23;;;;;;;7.45;2.40;;;8.20;99.90;;;;;;5044662;28;20040;-44
2023/01/12 05:12:48;;;;;;;8.32;1.95;;;8.20;99.90;;;;;;5041790;28;20025;-44
2023/01/12 05:15:14;;;;;;;13.27;2.17;;;8.20;99.90;;;;;;5050506;28;20021;-44
2023/01/12 05:17:40;;;;;;;9.43;2.72;;;8.20;99.90;;;;;;5052732;28;20382;-44
2023/01/12 05:20:07;;;;;;;6.53;2.15;;;8.10;99.90;;;;;;5053191;28;20028;-43
2023/01/12 05:22:33;;;;;;;8.35;1.95;;;8.10;99.90;;;;;;5044815;28;20320;-44
2023/01/12 05:24:58;;;;;;;7.65;1.85;;;8.00;99.90;;;;;;5046228;28;20044;-43
2023/01/12 05:27:24;;;;;;;14.55;2.78;;;8.00;99.90;;;;;;5041823;28;20124;-43
2023/01/12 05:29:51;;;;;;;15.65;2.47;;;8.00;99.90;;;;;;5040099;28;20133;-43
2023/01/12 05:32:17;;;;;;;6.07;2.15;;;7.90;99.90;;;;;;5040107;28;20025;-43
2023/01/12 05:34:43;;;;;;;6.10;1.83;;;7.90;99.90;;;;;;5041166;28;20389;-43
2023/01/12 05:37:08;;;;;;;19.67;2.80;;;7.90;99.90;;;;;;5041693;28;20041;-42
2023/01/12 05:39:34;;;;;;;11.48;2.17;;;7.90;99.90;;;;;;5038752;28;20039;-43
2023/01/12 05:44:44;;;;;;;11.20;2.03;;;7.90;99.90;;;;;;5034198;28;20040;-42
2023/01/12 05:47:09;;;;;;;8.25;1.70;;;7.90;99.90;;;;;;5048862;28;20017;-42
2023/01/12 05:49:35;;;;;;;4.80;1.50;;;7.90;99.90;;;;;;5033329;28;20029;-43
2023/01/12 05:52:01;;;;;;;10.77;1.98;;;7.90;99.90;;;;;;5039473;28;20104;-43
2023/01/12 05:54:26;;;;;;;8.32;2.42;;;8.00;99.90;;;;;;5047345;28;20024;-42
2023/01/12 05:56:54;;;;;;;7.80;1.95;;;8.00;99.90;;;;;;5043696;28;20139;-42
2023/01/12 05:59:19;;;;;;;9.38;1.77;;;8.10;99.90;;;;;;5038536;28;20029;-41
2023/01/12 06:01:45;;;;;;;7.10;2.03;;;8.10;99.90;;;;;;5040430;28;20116;-42
2023/01/12 06:04:11;;;;;;;7.07;1.80;;;8.20;99.90;;;;;;5041853;28;20048;-42
2023/01/12 06:06:37;;;;;;;4.18;1.52;;;8.20;99.90;;;;;;5039409;28;20083;-43
2023/01/12 06:09:02;;;;;;;8.00;2.00;;;8.20;99.90;;;;;;5040895;28;20025;-43
2023/01/12 06:14:12;;;;;;;6.00;1.50;;;8.30;99.90;;;;;;5042565;28;20079;-42
2023/01/12 06:16:40;;;;;;;6.32;1.65;;;8.20;99.90;;;;;;5040619;28;20042;-43
2023/01/12 06:19:06;;;;;;;6.10;1.73;;;8.20;99.90;;;;;;5040964;28;20057;-42
2023/01/12 06:21:33;;;;;;;8.90;1.90;;;8.20;99.90;;;;;;5043244;28;20025;-41
2023/01/12 06:24:00;;;;;;;6.82;1.75;;;8.30;99.90;;;;;;5039146;28;20041;-43
2023/01/12 06:26:26;;;;;;;10.93;2.92;;;8.30;99.90;;;;;;5040703;28;20025;-43
2023/01/12 06:28:52;;;;;;;7.82;1.67;;;8.30;99.90;;;;;;5040468;28;20029;-42
2023/01/12 06:31:17;;;;;;;6.28;1.40;;;8.30;99.90;;;;;;5038031;28;20021;-42
2023/01/12 06:33:43;;;;;;;7.38;1.98;;;8.40;99.90;;;;;;5048773;28;20029;-42
2023/01/12 06:36:10;;;;;;;8.82;1.35;;;8.40;99.90;;;;;;5050025;28;20052;-43
2023/01/12 06:38:36;;;;;;;9.82;1.50;;;8.40;99.90;;;;;;5050182;28;20036;-43
2023/01/12 06:42:27;;;;;;;6.82;1.33;;;8.40;99.90;;;;;;5048680;28;20020;-42
2023/01/12 06:43:54;;;;;;;3.88;1.40;;;8.50;99.90;;;;;;5048804;28;20494;-43
2023/01/12 06:46:19;;;;;;;3.90;1.23;;;8.50;99.90;;;;;;5049718;28;20021;-43
2023/01/12 06:48:48;;;;;;;6.57;3.00;;;8.60;99.90;;;;;;5056787;28;20050;-46
2023/01/12 06:51:14;;;;;;;4.22;1.08;;;8.60;99.90;;;;;;5064982;28;20024;-43
2023/01/12 06:53:42;;;;;;;2.58;1.27;;;8.70;99.90;;;;;;5064344;28;20108;-43
2023/01/12 06:56:08;;;;;;;3.90;1.88;;;8.70;99.90;;;;;;5064067;28;20586;-42
2023/01/12 06:58:34;;;;;;;6.78;1.45;;;8.70;99.90;;;;;;5065761;28;20151;-42
2023/01/12 07:01:01;;;;;;;5.55;1.77;;;8.70;99.90;;;;;;5062893;28;20111;-42
2023/01/12 07:03:26;;;;;;;11.50;1.50;;;8.80;99.90;;;;;;5068763;28;20028;-42
2023/01/12 07:05:52;;;;;;;5.18;1.15;;;8.70;99.90;;;;;;5067871;28;20029;-44
2023/01/12 07:08:18;;;;;;;5.07;1.30;;;8.70;99.90;;;;;;5069407;28;20095;-42
2023/01/12 07:10:44;;;;;;;3.95;1.40;;;8.70;99.90;;;;;;5069003;28;20032;-43
2023/01/12 07:13:11;;;;;;;5.18;1.67;;;8.70;99.90;;;;;;5068700;28;20032;-42
2023/01/12 07:15:36;;;;;;;7.03;1.45;;;8.70;99.90;;;;;;5068295;28;20115;-43
2023/01/12 07:18:02;;;;;;;5.93;1.25;;;8.70;99.90;;;;;;5065045;28;20112;-42
2023/01/12 07:20:28;;;;;;;5.28;1.42;;;8.70;99.90;;;;;;5060772;28;20052;-43
2023/01/12 07:22:54;;;;;;;7.05;1.50;;;8.70;99.90;;;;;;5041437;28;20017;-43
2023/01/12 07:25:20;;;;;;;4.55;1.23;;;8.70;99.90;;;;;;5037108;28;20029;-42
2023/01/12 07:27:50;;;;;;;3.40;1.55;;;8.80;99.90;;;;;;5036624;28;20044;-41
2023/01/12 07:30:17;;;;;;;6.90;1.05;;;8.90;99.90;;;;;;5048678;28;20040;-41
2023/01/12 07:32:42;;;;;;;3.80;1.27;;;8.90;99.90;;;;;;5048233;28;20025;-41
2023/01/12 07:35:09;;;;;;;5.05;1.13;;;8.90;99.90;;;;;;5048866;28;20066;-41
2023/01/12 07:37:35;;;;;;;8.65;1.48;;;8.90;99.90;;;;;;5047661;28;20024;-42
2023/01/12 07:40:01;;;;;;;3.90;1.50;;;8.90;99.90;;;;;;5048974;28;20021;-41
2023/01/12 07:42:29;;;;;;;8.90;1.58;;;8.90;99.90;;;;;;5029226;28;20036;-42
2023/01/12 07:44:55;;;;;;;4.88;1.30;;;9.00;99.90;;;;;;5049295;28;20581;-41
2023/01/12 07:47:20;;;;;;;5.80;1.50;;;9.00;99.90;;;;;;5065157;28;20139;-41
2023/01/12 07:49:46;;;;;;;3.92;1.60;;;9.00;99.90;;;;;;5039413;28;20156;-41
2023/01/12 07:52:12;;;;;;;9.20;2.03;;;9.00;99.90;;;;;;5028505;28;20025;-41
2023/01/12 07:54:38;;;;;;;5.82;1.63;;;9.10;99.90;;;;;;5027782;28;20038;-41
2023/01/12 07:57:08;;;;;;;6.35;1.60;;;9.10;99.90;;;;;;5041577;28;20098;-40
2023/01/12 07:59:34;;;;;;;6.20;1.47;;;9.20;99.90;;;;;;5065686;28;20120;-41
2023/01/12 08:01:59;;;;;;;9.55;1.88;;;9.20;99.90;;;;;;5067581;28;20173;-41
2023/01/12 08:04:25;;;;;;;8.07;1.20;;;9.20;99.90;;;;;;5068457;28;20309;-41
2023/01/12 08:06:50;;;;;;;5.75;1.30;;;9.30;99.90;;;;;;5068431;28;20379;-41
2023/01/12 08:09:16;;;;;;;6.25;1.50;;;9.30;99.90;;;;;;5068556;28;20025;-41
2023/01/12 08:11:42;;;;;;;8.70;1.75;;;9.30;99.90;;;;;;5067527;28;20401;-42
2023/01/12 08:14:08;;;;;;;8.43;1.52;;;9.30;99.90;;;;;;5059565;28;20020;-42
2023/01/12 08:16:40;;;;;;;6.13;2.00;;;9.30;99.90;;;;;;5058113;28;20032;-41
2023/01/12 08:19:15;;;;;;;5.18;1.45;;;9.30;99.90;;;;;;5068356;28;20020;-42
2023/01/12 08:21:49;;;;;;;3.38;1.23;;;9.40;99.90;;;;;;5066716;28;20232;-41
2023/01/12 08:24:20;;;;;;;5.72;1.55;;;9.40;99.90;;;;;;5070644;28;20506;-41
2023/01/12 08:26:49;;;;;;;8.07;1.80;;;9.40;99.90;;;;;;5072519;28;20470;-41
2023/01/12 08:29:22;;;;;;;4.40;1.50;;;9.40;99.90;;;;;;5070898;28;20024;-41
2023/01/12 08:31:48;;;;;;;4.97;1.45;;;9.40;99.90;;;;;;5056622;28;20119;-41
2023/01/12 08:34:14;;;;;;;9.93;1.65;;;9.40;99.90;;;;;;5043637;28;20300;-40
2023/01/12 08:36:41;;;;;;;2.65;1.30;;;9.30;99.90;;;;;;5051125;28;20033;-39
2023/01/12 08:39:07;;;;;;;7.57;1.60;;;9.20;99.90;;;;;;5052298;28;20025;-40
2023/01/12 08:41:33;;;;;;;6.13;1.70;;;9.10;99.90;;;;;;5052530;28;20040;-40
2023/01/12 08:44:10;;;;;;;6.45;1.85;;;9.10;99.90;;;;;;5056339;28;20538;-41
2023/01/12 08:46:48;;;;;;;5.25;2.03;;;9.20;99.90;;;;;;5063954;28;20436;-41
2023/01/12 08:49:15;;;;;;;10.63;1.33;;;9.10;99.90;;;;;;5071191;28;20055;-40
2023/01/12 08:51:41;;;;;;;3.67;1.17;;;9.10;99.90;;;;;;5071888;28;20032;-40
2023/01/12 08:54:08;;;;;;;4.40;1.10;;;9.10;99.90;;;;;;5068510;28;20035;-40
2023/01/12 08:56:34;;;;;;;9.45;2.50;;;9.00;99.90;;;;;;5062287;28;20021;-51
2023/01/12 08:59:00;;;;;;;3.60;1.10;;;9.00;99.90;;;;;;5071891;28;20024;-51
2023/01/12 09:01:26;;;;;;;7.15;1.27;;;9.00;99.90;;;;;;5070003;28;20427;-48
2023/01/12 09:03:52;;;;;;;5.13;1.20;;;9.00;99.90;;;;;;5069840;28;20021;-49
2023/01/12 09:06:19;;;;;;;4.68;1.40;;;9.00;99.90;;;;;;5070080;28;20059;-48
2023/01/12 09:08:45;;;;;;;4.07;1.17;;;8.90;99.90;;;;;;5071637;28;20493;-49
2023/01/12 09:11:14;;;;;;;0.73;0.57;;;8.90;99.90;;;;;;5071515;28;20040;-51
2023/01/12 09:13:40;;;;;;;3.20;1.27;;;8.90;99.90;;;;;;5071019;28;20549;-49
2023/01/12 09:16:10;;;;;;;5.15;1.02;;;8.90;99.90;;;;;;5058936;28;20124;-50
2023/01/12 09:18:36;;;;;;;11.85;1.70;;;8.90;99.90;;;;;;5070045;28;20031;-49
2023/01/12 09:21:07;;;;;;;2.60;1.38;;;8.90;99.90;;;;;;5071180;28;20040;-49
2023/01/12 09:23:33;;;;;;;3.88;1.23;;;9.00;99.90;;;;;;5071008;28;20028;-49
2023/01/12 09:26:07;;;;;;;3.70;0.93;;;9.00;99.90;;;;;;5070130;28;20020;-49
2023/01/12 09:28:34;;;;;;;5.15;1.15;;;9.10;99.90;;;;;;5069670;28;20048;-51
2023/01/12 09:31:09;;;;;;;3.78;1.60;;;9.00;99.90;;;;;;5070275;28;20036;-51
2023/01/12 09:33:36;;;;;;;5.60;1.23;;;9.10;99.90;;;;;;5070543;28;20108;-50
2023/01/12 09:36:07;;;;;;;4.10;1.60;;;9.20;99.90;;;;;;5071547;28;20486;-51
2023/01/12 09:38:38;;;;;;;6.45;1.13;;;9.20;99.90;;;;;;5071748;28;20071;-50
2023/01/12 09:47:34;;;;;;;3.95;1.17;;;9.30;99.90;;;;;;5033809;28;20339;-52
2023/01/12 09:50:11;;;;;;;3.53;0.90;;;9.30;99.90;;;;;;5060367;28;20021;-51
2023/01/12 09:52:51;;;;;;;2.92;1.00;;;9.40;99.90;;;;;;5068733;28;20125;-52
2023/01/12 09:55:24;;;;;;;2.88;1.10;;;9.50;99.90;;;;;;5071090;28;20393;-49
2023/01/12 09:58:12;;;;;;;1.92;0.80;;;9.60;99.90;;;;;;5069437;28;20501;-50
2023/01/12 10:00:38;;;;;;;2.58;0.82;;;9.60;99.90;;;;;;5070969;28;20036;-48
2023/01/12 10:03:13;;;;;;;2.50;1.15;;;9.70;99.90;;;;;;5070123;28;20581;-48
2023/01/12 10:05:48;;;;;;;4.90;0.85;;;9.70;99.90;;;;;;5070612;28;20020;-49
2023/01/12 10:08:37;;;;;;;6.15;0.95;;;9.70;99.90;;;;;;5069431;28;20025;-49
2023/01/12 10:11:14;;;;;;;2.10;0.90;;;9.80;99.90;;;;;;5070688;28;20037;-50
2023/01/12 10:13:53;;;;;;;1.40;0.70;;;9.80;99.90;;;;;;5070103;28;20078;-49
2023/01/12 10:16:46;;;;;;;4.30;1.08;;;9.80;99.90;;;;;;5070421;28;20063;-49
2023/01/12 10:19:29;;;;;;;3.47;0.93;;;9.80;99.90;;;;;;5066058;28;20363;-49
2023/01/12 10:21:56;;;;;;;2.75;0.70;;;9.90;99.90;;;;;;5055002;28;20417;-48
2023/01/12 10:24:24;;;;;;;2.17;0.70;;;10.00;99.90;;;;;;5070433;28;20470;-50
2023/01/12 10:26:58;;;;;;;1.27;0.90;;;10.00;99.90;;;;;;5070088;28;20557;-48
2023/01/12 10:29:24;;;;;;;1.30;0.50;;;10.10;99.90;;;;;;5069578;28;20096;-49
2023/01/12 10:31:50;;;;;;;2.30;0.80;;;10.30;99.90;;;;;;5069735;28;20119;-51
2023/01/12 10:34:17;;;;;;;4.07;0.70;;;10.40;99.90;;;;;;5069847;28;20096;-50
2023/01/12 10:36:46;;;;;;;1.98;0.90;;;10.30;99.90;;;;;;5069886;28;20033;-49
2023/01/12 10:39:33;;;;;;;1.90;0.80;;;10.30;99.90;;;;;;5068028;28;20027;-51
2023/01/12 10:45:21;;;;;;;4.05;0.85;;;10.20;99.90;;;;;;5040834;28;20036;-49
2023/01/12 10:47:49;;;;;;;1.33;0.90;;;10.30;99.90;;;;;;5049025;28;20052;-52
2023/01/12 10:50:27;;;;;;;1.48;0.77;;;10.20;99.90;;;;;;5046348;28;20505;-52
2023/01/12 10:53:11;;;;;;;2.65;0.70;;;10.40;99.90;;;;;;5045783;28;20028;-50
2023/01/12 10:55:39;;;;;;;3.53;0.63;;;10.30;99.90;;;;;;5046145;28;20377;-49
2023/01/12 10:58:17;;;;;;;4.80;0.73;;;10.30;99.90;;;;;;5049316;28;20067;-49
2023/01/12 11:00:47;;;;;;;2.38;0.70;;;10.20;99.90;;;;;;5044661;28;20041;-50
2023/01/12 11:03:36;;;;;;;1.75;0.57;;;10.10;99.90;;;;;;5047584;28;20402;-52
2023/01/12 11:06:22;;;;;;;1.77;0.63;;;10.10;99.90;;;;;;5040956;28;20057;-52
2023/01/12 11:08:48;;;;;;;1.20;0.50;;;10.10;99.90;;;;;;5049079;28;20545;-49
2023/01/12 11:11:28;;;;;;;1.70;0.68;;;10.10;99.90;;;;;;5049578;28;20091;-49
2023/01/12 11:13:55;;;;;;;;;;;10.10;99.90;;;;;;5049076;28;20025;-48
2023/01/12 11:16:23;;;;;;;1.55;0.52;;;10.00;99.90;;;;;;5049035;28;20212;-49
2023/01/12 11:19:03;;;;;;;0.82;0.52;;;10.00;99.90;;;;;;5048933;28;20029;-50
2023/01/12 11:21:34;;;;;;;0.52;0.47;;;10.00;99.90;;;;;;5049366;28;20029;-51
2023/01/12 11:24:29;;;;;;;1.40;0.85;;;10.00;99.90;;;;;;5052808;28;20431;-50
2023/01/12 11:27:11;;;;;;;1.80;0.55;;;10.00;99.90;;;;;;5054523;28;20078;-51
2023/01/12 11:29:47;;;;;;;0.88;0.50;;;10.00;99.90;;;;;;5068948;28;20031;-51
2023/01/12 11:32:18;;;;;;;1.08;0.55;;;10.00;99.90;;;;;;5068473;28;20494;-49
2023/01/12 11:34:54;;;;;;;0.98;0.55;;;10.10;99.90;;;;;;5067747;28;20036;-50
2023/01/12 11:37:20;;;;;;;0.63;0.50;;;10.10;99.90;;;;;;5068972;28;20054;-50
2023/01/12 11:39:51;;;;;;;1.15;0.63;;;10.10;99.90;;;;;;5068932;28;20032;-51
2023/01/12 11:45:23;;;;;;;3.20;0.90;;;10.10;99.90;;;;;;5068970;28;20036;-50
2023/01/12 11:47:55;;;;;;;0.70;0.47;;;10.00;99.90;;;;;;5068938;28;20389;-48
2023/01/12 11:50:32;;;;;;;1.48;0.50;;;10.20;99.90;;;;;;5068964;28;20046;-50
2023/01/12 11:52:58;;;;;;;3.08;0.55;;;10.30;99.90;;;;;;5064525;28;20155;-48
2023/01/12 11:55:54;;;;;;;0.77;0.60;;;10.30;99.90;;;;;;5055610;28;20508;-49
2023/01/12 11:58:32;;;;;;;0.80;0.43;;;10.30;99.90;;;;;;5067783;28;20021;-50
2023/01/12 12:01:00;;;;;;;0.52;0.32;;;10.30;99.90;;;;;;5068978;28;20048;-51
2023/01/12 12:03:50;;;;;;;0.40;0.40;;;10.30;99.90;;;;;;5066905;28;20024;-51
2023/01/12 12:06:29;;;;;;;1.63;0.60;;;10.30;99.90;;;;;;5068714;28;20017;-49
2023/01/12 12:09:27;;;;;;;1.17;0.50;;;10.30;99.90;;;;;;5067226;28;20059;-52
2023/01/12 12:12:29;;;;;;;0.30;0.25;;;10.20;99.90;;;;;;5068137;28;20139;-50
2023/01/12 12:14:57;;;;;;;3.92;0.60;;;10.10;99.90;;;;;;5068505;28;20366;-49
2023/01/12 12:17:35;;;;;;;0.55;0.50;;;10.10;99.90;;;;;;5068792;28;20020;-50
2023/01/12 12:20:23;;;;;;;0.47;0.47;;;10.10;99.90;;;;;;5068794;28;20028;-50
2023/01/12 12:23:19;;;;;;;1.63;0.60;;;10.10;99.90;;;;;;5065815;28;20025;-51
2023/01/12 12:25:50;;;;;;;5.93;0.50;;;10.00;99.90;;;;;;5059633;28;20175;-49
2023/01/12 12:28:46;;;;;;;1.27;0.73;;;9.90;99.90;;;;;;5068705;28;20025;-50
2023/01/12 12:31:43;;;;;;;1.52;0.63;;;9.90;99.90;;;;;;5068646;28;20107;-51
2023/01/12 12:34:31;;;;;;;0.50;0.45;;;9.90;99.90;;;;;;5068502;28;20049;-51
2023/01/12 12:37:24;;;;;;;0.85;0.60;;;10.00;99.90;;;;;;5051316;28;20032;-50
2023/01/12 12:40:14;;;;;;;1.17;0.65;;;10.00;99.90;;;;;;5047528;28;20025;-50
2023/01/12 12:46:05;;;;;;;1.42;0.60;;;10.00;99.90;;;;;;5053518;28;20035;-50
2023/01/12 12:48:49;;;;;;;1.80;0.47;;;10.00;99.90;;;;;;5052172;28;20021;-51
2023/01/12 12:51:15;;;;;;;1.92;0.50;;;10.00;99.90;;;;;;5055181;28;20723;-52
2023/01/12 12:53:44;;;;;;;0.75;0.50;;;10.00;99.90;;;;;;5051616;28;20028;-50
2023/01/12 12:56:16;;;;;;;1.52;0.50;;;10.00;99.90;;;;;;5053202;28;20090;-51
2023/01/12 12:58:45;;;;;;;1.70;0.63;;;10.00;99.90;;;;;;5052331;28;20036;-52
2023/01/12 13:01:37;;;;;;;0.50;0.40;;;10.10;99.90;;;;;;5039318;28;20036;-49
2023/01/12 13:04:04;;;;;;;0.40;0.40;;;10.20;99.90;;;;;;5055225;28;20040;-49
2023/01/12 13:06:45;;;;;;;0.98;0.47;;;10.20;99.90;;;;;;5052703;28;20021;-50
2023/01/12 13:09:11;;;;;;;0.50;0.50;;;10.10;99.90;;;;;;5051094;28;20031;-52
2023/01/12 13:12:07;;;;;;;2.35;0.50;;;10.20;99.90;;;;;;5061047;28;20427;-53
2023/01/12 13:14:37;;;;;;;0.40;0.40;;;10.10;99.90;;;;;;5052112;28;20517;-51
2023/01/12 13:19:41;;;;;;;0.75;0.50;;;10.20;99.90;;;;;;5030030;28;20038;-80
2023/01/12 13:22:27;;;;;;;1.13;0.60;;;10.20;99.90;;;;;;5029058;28;20037;-78
2023/01/12 13:24:57;;;;;;;0.57;0.47;;;10.20;99.90;;;;;;5024700;28;20106;-77
2023/01/12 13:27:41;;;;;;;;;;;10.20;99.90;;;;;;5029183;28;20024;-79
2023/01/12 13:30:25;;;;;;;1.13;0.20;;;10.20;99.90;;;;;;5024241;28;19992;-78
2023/01/12 13:32:56;;;;;;;1.23;0.82;;;10.20;99.90;;;;;;5027937;28;20026;-77
2023/01/12 13:35:48;;;;;;;0.30;0.20;;;10.20;99.90;;;;;;5021604;28;20850;-78
2023/01/12 13:38:30;;;;;;;0.75;0.40;;;10.20;99.90;;;;;;5023812;28;20033;-77
2023/01/12 13:44:15;;;;;;;0.40;0.40;;;10.30;99.90;;;;;;5026558;28;20032;-77
2023/01/12 13:46:45;;;;;;;0.82;0.40;;;10.30;99.90;;;;;;5026078;28;20025;-78
2023/01/12 13:49:33;;;;;;;0.50;0.32;;;10.30;99.90;;;;;;5027222;28;20024;-78
2023/01/12 13:52:03;;;;;;;0.82;0.47;;;10.30;99.90;;;;;;5024365;28;20056;-78
2023/01/12 13:54:30;;;;;;;3.88;0.68;;;10.20;99.90;;;;;;5029235;28;20108;-80
2023/01/12 13:57:00;;;;;;;1.20;0.30;;;10.10;99.90;;;;;;5028526;28;20029;-80
2023/01/12 13:59:26;;;;;;;0.80;0.40;;;10.10;99.90;;;;;;5033553;28;20048;-81